createdAt,value
2018-10-02T00:00:43.192Z,100755.39
2018-10-02T00:04:48.265Z,100755.78
2018-10-02T00:08:53.267Z,100756.42
2018-10-02T00:13:03.772Z,100763.13
2018-10-02T00:17:08.761Z,100761.05
2018-10-02T00:21:13.830Z,100762.64
2018-10-02T00:25:18.855Z,100767.98
2018-10-02T00:29:23.877Z,100761.32
2018-10-02T00:33:28.901Z,100763.86
2018-10-02T00:37:33.928Z,100766.22
2018-10-02T00:41:38.937Z,100763.27
2018-10-02T00:45:43.958Z,100756.37
2018-10-02T00:49:48.968Z,100749.58
2018-10-02T00:53:53.976Z,100753.55
2018-10-02T00:57:59.013Z,100749.05
2018-10-02T01:02:04.141Z,100747.23
2018-10-02T01:06:09.193Z,100746.97
2018-10-02T01:10:15.265Z,100745.69
2018-10-02T01:14:20.280Z,100752.63
2018-10-02T01:18:25.290Z,100747.47
2018-10-02T01:22:30.297Z,100746.64
2018-10-02T01:26:35.308Z,100743.42
2018-10-02T01:30:40.296Z,100740.80
2018-10-02T01:34:45.308Z,100733.83
2018-10-02T01:38:50.339Z,100736.28
2018-10-02T01:42:55.320Z,100729.44
2018-10-02T01:47:00.324Z,100732.43
2018-10-02T01:51:05.316Z,100727.17
2018-10-02T01:55:10.289Z,100731.42
2018-10-02T01:59:15.296Z,100730.95
2018-10-02T02:03:20.317Z,100727.45
2018-10-02T02:07:25.320Z,100726.25
2018-10-02T02:11:30.331Z,100727.01
2018-10-02T02:15:35.365Z,100737.50
2018-10-02T02:19:41.241Z,100745.30
2018-10-02T02:23:46.260Z,100747.92
2018-10-02T02:27:51.237Z,100746.25
2018-10-02T02:31:56.242Z,100747.83
2018-10-02T02:36:01.247Z,100748.98
2018-10-02T02:40:06.446Z,100754.30
2018-10-02T02:44:11.472Z,100757.03
2018-10-02T02:49:23.444Z,100753.58
2018-10-02T02:53:28.533Z,100742.60
2018-10-02T02:57:33.527Z,100745.50
2018-10-02T03:01:38.556Z,100746.16
2018-10-02T03:05:43.571Z,100751.52
2018-10-02T03:09:48.656Z,100733.30
2018-10-02T03:13:53.631Z,100738.92
2018-10-02T03:17:58.629Z,100738.26
2018-10-02T03:22:03.661Z,100741.38
2018-10-02T03:26:08.932Z,100736.96
2018-10-02T03:30:13.947Z,100730.95
2018-10-02T03:34:19.926Z,100727.45
2018-10-02T03:38:24.932Z,100727.53
2018-10-02T03:42:29.949Z,100733.47
2018-10-02T03:46:34.974Z,100732.55
2018-10-02T03:50:39.996Z,100735.62
2018-10-02T03:54:45.043Z,100728.20
2018-10-02T03:58:50.052Z,100718.84
2018-10-02T04:02:55.096Z,100703.32
2018-10-02T04:07:00.102Z,100701.93
2018-10-02T04:11:05.127Z,100710.94
2018-10-02T04:15:10.214Z,100707.64
2018-10-02T04:19:15.216Z,100716.18
2018-10-02T04:23:20.289Z,100707.83
2018-10-02T04:27:25.324Z,100695.34
2018-10-02T04:31:30.632Z,100705.00
2018-10-02T04:35:35.729Z,100709.09
2018-10-02T04:39:40.731Z,100704.24
2018-10-02T04:43:45.778Z,100701.51
2018-10-02T04:47:53.477Z,100701.09
2018-10-02T04:51:58.508Z,100709.17
2018-10-02T04:56:03.766Z,100702.07
2018-10-02T05:00:08.632Z,100708.13
2018-10-02T05:04:13.742Z,100706.74
2018-10-02T05:08:18.817Z,100710.74
2018-10-02T05:12:23.821Z,100720.60
2018-10-02T05:16:28.880Z,100707.75
2018-10-02T05:20:33.940Z,100702.94
2018-10-02T05:24:39.017Z,100699.97
2018-10-02T05:28:44.033Z,100705.05
2018-10-02T05:32:49.069Z,100706.97
2018-10-02T05:36:54.089Z,100710.92
2018-10-02T05:40:59.109Z,100709.84
2018-10-02T05:45:04.838Z,100720.98
2018-10-02T05:49:09.857Z,100709.08
2018-10-02T05:53:14.863Z,100703.19
2018-10-02T05:57:19.860Z,100708.33
2018-10-02T06:01:24.929Z,100721.32
2018-10-02T06:05:29.962Z,100720.37
2018-10-02T06:09:35.303Z,100699.44
2018-10-02T06:13:40.435Z,100690.75
2018-10-02T06:17:45.561Z,100693.28
2018-10-02T06:21:50.594Z,100697.87
2018-10-02T06:25:55.602Z,100713.35
2018-10-02T06:30:00.626Z,100699.66
2018-10-02T06:34:05.673Z,100704.45
2018-10-02T06:38:10.740Z,100710.92
2018-10-02T06:42:15.745Z,100715.72
2018-10-02T06:46:20.771Z,100725.11
2018-10-02T06:50:25.858Z,100735.82
2018-10-02T06:54:30.810Z,100735.17
2018-10-02T06:58:35.829Z,100736.47
2018-10-02T07:02:40.935Z,100736.47
2018-10-02T07:06:45.984Z,100731.39
2018-10-02T07:10:50.933Z,100723.06
2018-10-02T07:14:56.039Z,100727.45
2018-10-02T07:19:01.043Z,100721.08
2018-10-02T07:23:06.117Z,100721.63
2018-10-02T07:27:11.312Z,100723.30
2018-10-02T07:31:16.211Z,100723.02
2018-10-02T07:35:21.251Z,100725.53
2018-10-02T07:39:26.321Z,100731.53
2018-10-02T07:43:31.434Z,100717.81
2018-10-02T07:47:36.640Z,100725.53
2018-10-02T07:51:41.594Z,100722.31
2018-10-02T07:55:46.613Z,100729.83
2018-10-02T07:59:51.691Z,100738.37
2018-10-02T08:03:56.672Z,100743.08
2018-10-02T08:08:01.672Z,100746.09
2018-10-02T08:12:06.792Z,100751.63
2018-10-02T08:16:11.766Z,100751.72
2018-10-02T08:20:16.821Z,100740.34
2018-10-02T08:24:21.852Z,100740.52
2018-10-02T08:28:26.881Z,100737.37
2018-10-02T08:32:31.931Z,100750.07
2018-10-02T08:36:36.957Z,100742.13
2018-10-02T08:40:42.181Z,100737.72
2018-10-02T08:44:47.575Z,100731.98
2018-10-02T08:48:52.585Z,100734.81
2018-10-02T08:52:57.654Z,100729.37
2018-10-02T08:57:02.692Z,100728.16
2018-10-02T09:01:08.420Z,100723.07
2018-10-02T09:05:13.345Z,100695.64
2018-10-02T09:09:18.353Z,100697.45
2018-10-02T09:13:23.337Z,100696.00
2018-10-02T09:17:28.360Z,100692.34
2018-10-02T09:21:33.424Z,100696.47
2018-10-02T09:25:38.428Z,100693.09
2018-10-02T09:29:48.660Z,100705.64
2018-10-02T09:33:58.844Z,100705.83
2018-10-02T09:38:09.125Z,100697.60
2018-10-02T09:42:19.469Z,100697.61
2018-10-02T09:46:25.193Z,100684.75
2018-10-02T09:50:30.276Z,100700.38
2018-10-02T09:54:35.219Z,100699.38
2018-10-02T09:58:40.295Z,100695.20
2018-10-02T10:02:45.371Z,100690.84
2018-10-02T10:06:50.286Z,100687.23
2018-10-02T10:10:55.301Z,100671.37
2018-10-02T10:15:00.293Z,100666.21
2018-10-02T10:19:05.757Z,100655.17
2018-10-02T10:23:10.772Z,100657.69
2018-10-02T10:27:16.070Z,100655.62
2018-10-02T10:31:21.641Z,100648.73
2018-10-02T10:35:26.671Z,100626.33
2018-10-02T10:39:32.806Z,100636.75
2018-10-02T10:43:38.714Z,100628.78
2018-10-02T10:47:43.854Z,100637.88
2018-10-02T10:51:48.769Z,100627.58
2018-10-02T10:55:53.779Z,100626.77
2018-10-02T10:59:58.798Z,100623.03
2018-10-02T11:04:03.848Z,100609.13
2018-10-02T11:08:08.872Z,100610.46
2018-10-02T11:12:13.944Z,100612.63
2018-10-02T11:16:18.926Z,100595.75
2018-10-02T11:20:28.046Z,100589.36
2018-10-02T11:24:33.029Z,100584.62
2018-10-02T11:28:38.032Z,100584.98
2018-10-02T11:32:43.057Z,100589.74
2018-10-02T11:36:48.076Z,100586.23
2018-10-02T11:40:53.095Z,100576.85
2018-10-02T11:44:58.190Z,100579.70
2018-10-02T11:49:03.119Z,100582.80
2018-10-02T11:53:08.222Z,100587.16
2018-10-02T11:57:13.255Z,100588.94
2018-10-02T12:01:18.339Z,100574.06
2018-10-02T12:05:23.229Z,100576.70
2018-10-02T12:09:28.243Z,100585.29
2018-10-02T12:13:33.392Z,100585.63
2018-10-02T12:17:38.281Z,100571.66
2018-10-02T12:21:43.284Z,100582.23
2018-10-02T12:25:48.281Z,100575.60
2018-10-02T12:29:53.337Z,100569.98
2018-10-02T12:33:58.336Z,100577.48
2018-10-02T12:38:03.338Z,100577.13
2018-10-02T12:42:08.324Z,100575.47
2018-10-02T12:46:13.356Z,100566.20
2018-10-02T12:50:18.374Z,100563.47
2018-10-02T12:54:23.459Z,100575.58
2018-10-02T12:58:28.485Z,100563.41
2018-10-02T13:02:33.502Z,100561.45
2018-10-02T13:06:38.626Z,100547.83
2018-10-02T13:10:43.621Z,100540.20
2018-10-02T13:14:48.653Z,100529.44
2018-10-02T13:18:53.697Z,100537.64
2018-10-02T13:22:58.751Z,100539.82
2018-10-02T13:27:03.729Z,100535.52
2018-10-02T13:31:08.755Z,100535.11
2018-10-02T13:35:13.791Z,100530.30
2018-10-02T13:39:18.853Z,100532.14
2018-10-02T13:43:23.857Z,100526.59
2018-10-02T13:47:28.887Z,100514.45
2018-10-02T13:51:34.002Z,100498.94
2018-10-02T13:55:39.031Z,100498.05
2018-10-02T13:59:44.077Z,100486.31
2018-10-02T14:03:49.092Z,100481.05
2018-10-02T14:07:54.273Z,100475.86
2018-10-02T14:11:59.289Z,100479.61
2018-10-02T14:16:04.342Z,100496.98
2018-10-02T14:20:09.393Z,100487.24
2018-10-02T14:24:14.435Z,100493.81
2018-10-02T14:28:19.462Z,100496.22
2018-10-02T14:32:24.525Z,100490.34
2018-10-02T14:36:29.591Z,100497.89
2018-10-02T14:40:35.626Z,100492.56
2018-10-02T14:44:40.664Z,100482.94
2018-10-02T14:48:45.702Z,100480.55
2018-10-02T14:52:50.707Z,100492.20
2018-10-02T14:56:55.755Z,100492.84
2018-10-02T15:01:00.757Z,100487.18
2018-10-02T15:05:05.892Z,100485.17
2018-10-02T15:09:10.925Z,100486.94
2018-10-02T15:13:16.455Z,100485.05
2018-10-02T15:17:21.583Z,100486.55
2018-10-02T15:21:26.648Z,100496.35
2018-10-02T15:25:31.670Z,100484.03
2018-10-02T15:29:36.669Z,100489.34
2018-10-02T15:33:41.706Z,100477.66
2018-10-02T15:37:46.792Z,100486.65
2018-10-02T15:41:51.722Z,100478.55
2018-10-02T15:45:57.773Z,100470.08
2018-10-02T15:50:02.813Z,100461.42
2018-10-02T15:54:07.837Z,100454.61
2018-10-02T15:58:12.983Z,100453.06
2018-10-02T16:02:18.082Z,100458.48
2018-10-02T16:06:23.171Z,100467.75
2018-10-02T16:10:28.182Z,100463.74
2018-10-02T16:14:33.236Z,100457.73
2018-10-02T16:18:38.229Z,100450.23
2018-10-02T16:22:43.413Z,100461.11
2018-10-02T16:26:48.575Z,100458.50
2018-10-02T16:30:53.655Z,100455.13
2018-10-02T16:34:58.796Z,100463.66
2018-10-02T16:39:04.797Z,100469.70
2018-10-02T16:43:09.891Z,100481.45
2018-10-02T16:47:15.098Z,100487.72
2018-10-02T16:51:20.246Z,100487.69
2018-10-02T16:55:25.303Z,100500.52
2018-10-02T16:59:30.410Z,100499.77
2018-10-02T17:03:35.433Z,100504.68
2018-10-02T17:07:40.496Z,100507.32
2018-10-02T17:11:45.536Z,100500.13
2018-10-02T17:15:50.830Z,100516.62
2018-10-02T17:19:55.868Z,100510.05
2018-10-02T17:24:00.878Z,100524.39
2018-10-02T17:28:06.009Z,100528.35
2018-10-02T17:32:11.102Z,100523.79
2018-10-02T17:36:16.358Z,100528.16
2018-10-02T17:40:21.877Z,100526.58
2018-10-02T17:44:27.033Z,100528.63
2018-10-02T17:48:32.054Z,100518.67
2018-10-02T17:52:37.282Z,100511.01
2018-10-02T17:56:42.366Z,100514.24
2018-10-02T18:00:47.460Z,100521.71
2018-10-02T18:04:52.468Z,100520.60
2018-10-02T18:08:57.498Z,100530.83
2018-10-02T18:13:02.613Z,100536.01
2018-10-02T18:17:07.641Z,100528.20
2018-10-02T18:21:12.690Z,100535.28
2018-10-02T18:25:17.824Z,100536.60
2018-10-02T18:29:22.924Z,100546.70
2018-10-02T18:33:27.940Z,100553.53
2018-10-02T18:37:33.048Z,100561.72
2018-10-02T18:41:38.118Z,100560.15
2018-10-02T18:45:43.706Z,100563.78
2018-10-02T18:49:48.846Z,100558.97
2018-10-02T18:53:53.899Z,100549.48
2018-10-02T18:57:59.037Z,100543.47
2018-10-02T19:02:04.139Z,100554.77
2018-10-02T19:06:09.146Z,100556.35
2018-10-02T19:10:14.329Z,100552.72
2018-10-02T19:14:20.073Z,100540.14
2018-10-02T19:18:25.097Z,100555.36
2018-10-02T19:22:30.136Z,100556.94
2018-10-02T19:26:35.177Z,100559.71
2018-10-02T19:30:45.450Z,100557.54
2018-10-02T19:34:50.519Z,100563.43
2018-10-02T19:38:58.390Z,100561.98
2018-10-02T19:43:03.442Z,100562.11
2018-10-02T19:47:08.784Z,100556.23
2018-10-02T19:51:19.169Z,100569.44
2018-10-02T19:55:24.214Z,100555.63
2018-10-02T19:59:29.265Z,100547.36
2018-10-02T20:03:34.323Z,100535.20
2018-10-02T20:07:39.353Z,100542.67
2018-10-02T20:11:44.392Z,100542.08
2018-10-02T20:15:49.450Z,100531.50
2018-10-02T20:19:54.493Z,100534.14
2018-10-02T20:23:59.544Z,100539.30
2018-10-02T20:28:04.730Z,100539.65
2018-10-02T20:32:09.798Z,100545.41
2018-10-02T20:36:14.861Z,100548.69
2018-10-02T20:40:19.921Z,100562.72
2018-10-02T20:44:24.962Z,100561.39
2018-10-02T20:48:30.129Z,100557.20
2018-10-02T20:52:35.265Z,100550.21
2018-10-02T20:56:40.310Z,100565.95
2018-10-02T21:00:45.429Z,100557.42
2018-10-02T21:04:50.456Z,100550.81
2018-10-02T21:08:55.537Z,100551.91
2018-10-02T21:13:00.621Z,100553.82
2018-10-02T21:17:05.662Z,100547.81
2018-10-02T21:21:11.280Z,100550.93
2018-10-02T21:25:16.342Z,100555.48
2018-10-02T21:29:21.407Z,100540.48
2018-10-02T21:33:26.490Z,100548.55
2018-10-02T21:37:31.560Z,100541.22
2018-10-02T21:41:36.650Z,100530.27
2018-10-02T21:45:41.833Z,100538.19
2018-10-02T21:49:46.910Z,100541.55
2018-10-02T21:53:51.951Z,100536.05
2018-10-02T21:57:56.996Z,100540.02
2018-10-02T22:02:02.033Z,100544.45
2018-10-02T22:06:07.516Z,100544.10
2018-10-02T22:10:12.592Z,100539.41
2018-10-02T22:14:17.711Z,100528.45
2018-10-02T22:18:22.933Z,100534.11
2018-10-02T22:22:27.950Z,100533.14
2018-10-02T22:26:33.008Z,100527.51
2018-10-02T22:30:38.049Z,100525.45
2018-10-02T22:34:43.108Z,100522.93
2018-10-02T22:38:48.327Z,100524.48
2018-10-02T22:42:53.364Z,100521.95
2018-10-02T22:46:58.511Z,100522.80
2018-10-02T22:51:03.557Z,100517.76
2018-10-02T22:55:08.645Z,100526.16
2018-10-02T22:59:13.707Z,100526.28
2018-10-02T23:03:18.716Z,100525.30
2018-10-02T23:07:23.753Z,100521.47
2018-10-02T23:11:28.813Z,100529.65
2018-10-02T23:15:33.854Z,100521.36
2018-10-02T23:19:38.982Z,100546.11
2018-10-02T23:23:44.022Z,100543.22
2018-10-02T23:27:49.327Z,100543.09
2018-10-02T23:31:54.374Z,100543.20
2018-10-02T23:35:59.433Z,100536.76
2018-10-02T23:40:05.154Z,100534.44
2018-10-02T23:44:10.226Z,100536.48
2018-10-02T23:48:15.261Z,100550.55
2018-10-02T23:52:20.332Z,100540.48
2018-10-02T23:56:25.366Z,100543.12
